sensor_id;sensor_type;location;lat;lon;timestamp;P1;durP1;ratioP1;P2;durP2;ratioP2
10535;SDS011;5316;49.538;8.352;2024-02-26T00:00:14;2.53;;;1.90;;
10535;SDS011;5316;49.538;8.352;2024-02-26T00:02:42;1.70;;;1.60;;
10535;SDS011;5316;49.538;8.352;2024-02-26T00:05:09;2.47;;;2.03;;
10535;SDS011;5316;49.538;8.352;2024-02-26T00:07:35;2.60;;;2.40;;
10535;SDS011;5316;49.538;8.352;2024-02-26T00:10:02;3.33;;;2.80;;
10535;SDS011;5316;49.538;8.352;2024-02-26T00:12:29;4.97;;;3.07;;
10535;SDS011;5316;49.538;8.352;2024-02-26T00:14:55;3.37;;;2.40;;
10535;SDS011;5316;49.538;8.352;2024-02-26T00:17:23;2.97;;;2.30;;
10535;SDS011;5316;49.538;8.352;2024-02-26T00:19:51;2.23;;;1.90;;
10535;SDS011;5316;49.538;8.352;2024-02-26T00:22:19;2.13;;;1.70;;
10535;SDS011;5316;49.538;8.352;2024-02-26T00:24:47;2.10;;;1.90;;
10535;SDS011;5316;49.538;8.352;2024-02-26T00:27:13;3.57;;;1.80;;
10535;SDS011;5316;49.538;8.352;2024-02-26T00:29:40;2.40;;;1.67;;
10535;SDS011;5316;49.538;8.352;2024-02-26T00:32:07;2.33;;;1.77;;
10535;SDS011;5316;49.538;8.352;2024-02-26T00:34:33;1.73;;;1.60;;
10535;SDS011;5316;49.538;8.352;2024-02-26T00:37:02;2.50;;;1.60;;
10535;SDS011;5316;49.538;8.352;2024-02-26T00:39:30;2.03;;;1.40;;
10535;SDS011;5316;49.538;8.352;2024-02-26T00:41:56;2.17;;;1.40;;
10535;SDS011;5316;49.538;8.352;2024-02-26T00:44:23;1.70;;;1.60;;
10535;SDS011;5316;49.538;8.352;2024-02-26T00:46:50;1.60;;;1.50;;
10535;SDS011;5316;49.538;8.352;2024-02-26T00:49:16;1.67;;;1.57;;
10535;SDS011;5316;49.538;8.352;2024-02-26T00:51:43;1.90;;;1.50;;
10535;SDS011;5316;49.538;8.352;2024-02-26T00:54:11;2.40;;;1.97;;
10535;SDS011;5316;49.538;8.352;2024-02-26T00:56:38;1.80;;;1.40;;
10535;SDS011;5316;49.538;8.352;2024-02-26T00:59:05;1.50;;;1.40;;
10535;SDS011;5316;49.538;8.352;2024-02-26T01:01:31;1.43;;;1.40;;
10535;SDS011;5316;49.538;8.352;2024-02-26T01:03:58;2.40;;;2.07;;
10535;SDS011;5316;49.538;8.352;2024-02-26T01:06:25;1.63;;;1.40;;
10535;SDS011;5316;49.538;8.352;2024-02-26T01:08:52;2.47;;;1.37;;
10535;SDS011;5316;49.538;8.352;2024-02-26T01:11:20;1.50;;;1.40;;
10535;SDS011;5316;49.538;8.352;2024-02-26T01:13:46;1.60;;;1.50;;
10535;SDS011;5316;49.538;8.352;2024-02-26T01:16:13;1.50;;;1.40;;
10535;SDS011;5316;49.538;8.352;2024-02-26T01:18:40;1.63;;;1.23;;
10535;SDS011;5316;49.538;8.352;2024-02-26T01:21:06;1.67;;;1.57;;
10535;SDS011;5316;49.538;8.352;2024-02-26T01:23:34;1.37;;;1.27;;
10535;SDS011;5316;49.538;8.352;2024-02-26T01:26:01;1.57;;;1.37;;
10535;SDS011;5316;49.538;8.352;2024-02-26T01:28:31;1.97;;;1.60;;
10535;SDS011;5316;49.538;8.352;2024-02-26T01:30:57;1.60;;;1.50;;
10535;SDS011;5316;49.538;8.352;2024-02-26T01:33:25;3.30;;;1.83;;
10535;SDS011;5316;49.538;8.352;2024-02-26T01:35:52;1.50;;;1.40;;
10535;SDS011;5316;49.538;8.352;2024-02-26T01:38:19;2.13;;;1.40;;
10535;SDS011;5316;49.538;8.352;2024-02-26T01:40:45;1.77;;;1.53;;
10535;SDS011;5316;49.538;8.352;2024-02-26T01:43:12;2.80;;;1.50;;
10535;SDS011;5316;49.538;8.352;2024-02-26T01:45:40;1.50;;;1.40;;
10535;SDS011;5316;49.538;8.352;2024-02-26T01:48:07;1.60;;;1.50;;
10535;SDS011;5316;49.538;8.352;2024-02-26T01:50:35;1.50;;;1.40;;
10535;SDS011;5316;49.538;8.352;2024-02-26T01:53:03;2.40;;;1.43;;
10535;SDS011;5316;49.538;8.352;2024-02-26T01:55:30;1.60;;;1.50;;
10535;SDS011;5316;49.538;8.352;2024-02-26T01:57:57;1.40;;;1.30;;
10535;SDS011;5316;49.538;8.352;2024-02-26T02:00:25;1.53;;;1.10;;
10535;SDS011;5316;49.538;8.352;2024-02-26T02:02:54;2.33;;;0.93;;
10535;SDS011;5316;49.538;8.352;2024-02-26T02:05:21;1.00;;;1.00;;
10535;SDS011;5316;49.538;8.352;2024-02-26T02:07:48;3.03;;;1.10;;
10535;SDS011;5316;49.538;8.352;2024-02-26T02:10:16;1.93;;;1.30;;
10535;SDS011;5316;49.538;8.352;2024-02-26T02:12:47;1.90;;;1.07;;
10535;SDS011;5316;49.538;8.352;2024-02-26T02:15:14;1.00;;;1.00;;
10535;SDS011;5316;49.538;8.352;2024-02-26T02:17:41;1.40;;;1.30;;
10535;SDS011;5316;49.538;8.352;2024-02-26T02:20:09;1.13;;;1.10;;
10535;SDS011;5316;49.538;8.352;2024-02-26T02:22:42;1.80;;;1.10;;
10535;SDS011;5316;49.538;8.352;2024-02-26T02:25:09;1.27;;;1.10;;
10535;SDS011;5316;49.538;8.352;2024-02-26T02:27:36;1.00;;;0.90;;
10535;SDS011;5316;49.538;8.352;2024-02-26T02:30:03;2.23;;;1.23;;
10535;SDS011;5316;49.538;8.352;2024-02-26T02:32:31;1.40;;;1.03;;
10535;SDS011;5316;49.538;8.352;2024-02-26T02:34:58;1.17;;;1.07;;
10535;SDS011;5316;49.538;8.352;2024-02-26T02:37:25;1.37;;;1.10;;
10535;SDS011;5316;49.538;8.352;2024-02-26T02:39:53;1.10;;;1.10;;
10535;SDS011;5316;49.538;8.352;2024-02-26T02:42:22;2.47;;;1.00;;
10535;SDS011;5316;49.538;8.352;2024-02-26T02:44:49;1.00;;;0.90;;
10535;SDS011;5316;49.538;8.352;2024-02-26T02:47:16;1.20;;;1.10;;
10535;SDS011;5316;49.538;8.352;2024-02-26T02:49:43;2.30;;;1.10;;
10535;SDS011;5316;49.538;8.352;2024-02-26T02:52:10;0.80;;;0.80;;
10535;SDS011;5316;49.538;8.352;2024-02-26T02:54:36;1.33;;;0.87;;
10535;SDS011;5316;49.538;8.352;2024-02-26T02:57:07;1.13;;;1.03;;
10535;SDS011;5316;49.538;8.352;2024-02-26T02:59:34;1.07;;;0.97;;
10535;SDS011;5316;49.538;8.352;2024-02-26T03:02:01;0.97;;;0.90;;
10535;SDS011;5316;49.538;8.352;2024-02-26T03:04:28;1.10;;;1.00;;
10535;SDS011;5316;49.538;8.352;2024-02-26T03:06:55;0.80;;;0.80;;
10535;SDS011;5316;49.538;8.352;2024-02-26T03:09:22;0.70;;;0.70;;
10535;SDS011;5316;49.538;8.352;2024-02-26T03:11:49;0.80;;;0.80;;
10535;SDS011;5316;49.538;8.352;2024-02-26T03:14:17;2.07;;;1.40;;
10535;SDS011;5316;49.538;8.352;2024-02-26T03:16:44;1.33;;;0.80;;
10535;SDS011;5316;49.538;8.352;2024-02-26T03:19:11;0.83;;;0.70;;
10535;SDS011;5316;49.538;8.352;2024-02-26T03:21:40;2.20;;;0.70;;
10535;SDS011;5316;49.538;8.352;2024-02-26T03:24:07;0.67;;;0.67;;
10535;SDS011;5316;49.538;8.352;2024-02-26T03:26:35;0.60;;;0.60;;
10535;SDS011;5316;49.538;8.352;2024-02-26T03:29:02;0.70;;;0.70;;
10535;SDS011;5316;49.538;8.352;2024-02-26T03:31:30;1.53;;;0.50;;
10535;SDS011;5316;49.538;8.352;2024-02-26T03:33:56;0.40;;;0.40;;
10535;SDS011;5316;49.538;8.352;2024-02-26T03:36:23;0.50;;;0.50;;
10535;SDS011;5316;49.538;8.352;2024-02-26T03:38:50;1.17;;;0.50;;
10535;SDS011;5316;49.538;8.352;2024-02-26T03:41:17;0.93;;;0.57;;
10535;SDS011;5316;49.538;8.352;2024-02-26T03:43:44;0.50;;;0.50;;
10535;SDS011;5316;49.538;8.352;2024-02-26T03:46:10;0.53;;;0.53;;
10535;SDS011;5316;49.538;8.352;2024-02-26T03:48:40;0.40;;;0.40;;
10535;SDS011;5316;49.538;8.352;2024-02-26T03:51:08;1.07;;;0.50;;
10535;SDS011;5316;49.538;8.352;2024-02-26T03:53:34;0.40;;;0.40;;
10535;SDS011;5316;49.538;8.352;2024-02-26T03:56:02;0.50;;;0.50;;
10535;SDS011;5316;49.538;8.352;2024-02-26T03:58:30;5.90;;;3.87;;
10535;SDS011;5316;49.538;8.352;2024-02-26T04:00:57;1.40;;;1.30;;
10535;SDS011;5316;49.538;8.352;2024-02-26T04:03:25;0.50;;;0.50;;
10535;SDS011;5316;49.538;8.352;2024-02-26T04:05:53;1.23;;;0.50;;
10535;SDS011;5316;49.538;8.352;2024-02-26T04:08:20;0.60;;;0.60;;
10535;SDS011;5316;49.538;8.352;2024-02-26T04:10:47;0.50;;;0.50;;
10535;SDS011;5316;49.538;8.352;2024-02-26T04:13:14;0.57;;;0.50;;
10535;SDS011;5316;49.538;8.352;2024-02-26T04:15:40;0.40;;;0.40;;
10535;SDS011;5316;49.538;8.352;2024-02-26T04:18:07;0.50;;;0.50;;
10535;SDS011;5316;49.538;8.352;2024-02-26T04:20:34;0.50;;;0.50;;
10535;SDS011;5316;49.538;8.352;2024-02-26T04:23:02;0.60;;;0.60;;
10535;SDS011;5316;49.538;8.352;2024-02-26T04:25:29;0.67;;;0.67;;
10535;SDS011;5316;49.538;8.352;2024-02-26T04:27:56;0.60;;;0.60;;
10535;SDS011;5316;49.538;8.352;2024-02-26T04:30:22;0.80;;;0.60;;
10535;SDS011;5316;49.538;8.352;2024-02-26T04:32:49;1.33;;;0.70;;
10535;SDS011;5316;49.538;8.352;2024-02-26T04:35:16;0.60;;;0.60;;
10535;SDS011;5316;49.538;8.352;2024-02-26T04:37:43;0.50;;;0.50;;
10535;SDS011;5316;49.538;8.352;2024-02-26T04:40:11;1.27;;;0.60;;
10535;SDS011;5316;49.538;8.352;2024-02-26T04:42:38;1.73;;;0.60;;
10535;SDS011;5316;49.538;8.352;2024-02-26T04:45:05;0.63;;;0.60;;
10535;SDS011;5316;49.538;8.352;2024-02-26T04:47:33;0.60;;;0.50;;
10535;SDS011;5316;49.538;8.352;2024-02-26T04:50:00;0.60;;;0.60;;
10535;SDS011;5316;49.538;8.352;2024-02-26T04:52:27;0.83;;;0.70;;
10535;SDS011;5316;49.538;8.352;2024-02-26T04:54:53;0.90;;;0.70;;
10535;SDS011;5316;49.538;8.352;2024-02-26T04:57:22;0.70;;;0.70;;
10535;SDS011;5316;49.538;8.352;2024-02-26T04:59:48;1.20;;;0.90;;
10535;SDS011;5316;49.538;8.352;2024-02-26T05:02:15;2.40;;;1.27;;
10535;SDS011;5316;49.538;8.352;2024-02-26T05:04:42;1.73;;;1.10;;
10535;SDS011;5316;49.538;8.352;2024-02-26T05:07:08;2.03;;;1.10;;
10535;SDS011;5316;49.538;8.352;2024-02-26T05:09:35;2.27;;;1.17;;
10535;SDS011;5316;49.538;8.352;2024-02-26T05:12:02;2.83;;;1.30;;
10535;SDS011;5316;49.538;8.352;2024-02-26T05:14:31;2.07;;;1.33;;
10535;SDS011;5316;49.538;8.352;2024-02-26T05:16:57;1.77;;;1.30;;
10535;SDS011;5316;49.538;8.352;2024-02-26T05:19:24;3.63;;;1.37;;
10535;SDS011;5316;49.538;8.352;2024-02-26T05:21:51;2.87;;;1.50;;
10535;SDS011;5316;49.538;8.352;2024-02-26T05:24:18;2.90;;;2.10;;
10535;SDS011;5316;49.538;8.352;2024-02-26T05:26:47;2.93;;;2.10;;
10535;SDS011;5316;49.538;8.352;2024-02-26T05:29:14;2.37;;;2.17;;
10535;SDS011;5316;49.538;8.352;2024-02-26T05:31:43;4.07;;;2.40;;
10535;SDS011;5316;49.538;8.352;2024-02-26T05:34:09;2.23;;;2.03;;
10535;SDS011;5316;49.538;8.352;2024-02-26T05:36:36;4.90;;;2.43;;
10535;SDS011;5316;49.538;8.352;2024-02-26T05:39:03;2.47;;;1.50;;
10535;SDS011;5316;49.538;8.352;2024-02-26T05:41:30;2.17;;;1.40;;
10535;SDS011;5316;49.538;8.352;2024-02-26T05:43:57;1.63;;;1.30;;
10535;SDS011;5316;49.538;8.352;2024-02-26T05:46:24;2.97;;;1.50;;
10535;SDS011;5316;49.538;8.352;2024-02-26T05:48:53;1.77;;;1.67;;
10535;SDS011;5316;49.538;8.352;2024-02-26T05:51:20;2.27;;;1.83;;
10535;SDS011;5316;49.538;8.352;2024-02-26T05:53:46;3.60;;;2.30;;
10535;SDS011;5316;49.538;8.352;2024-02-26T05:56:18;4.13;;;2.10;;
10535;SDS011;5316;49.538;8.352;2024-02-26T05:58:45;2.43;;;1.50;;
10535;SDS011;5316;49.538;8.352;2024-02-26T06:01:12;2.07;;;1.63;;
10535;SDS011;5316;49.538;8.352;2024-02-26T06:03:39;3.37;;;1.67;;
10535;SDS011;5316;49.538;8.352;2024-02-26T06:06:07;3.30;;;2.13;;
10535;SDS011;5316;49.538;8.352;2024-02-26T06:08:34;3.03;;;2.53;;
10535;SDS011;5316;49.538;8.352;2024-02-26T06:11:04;2.43;;;2.20;;
10535;SDS011;5316;49.538;8.352;2024-02-26T06:13:31;5.50;;;3.43;;
10535;SDS011;5316;49.538;8.352;2024-02-26T06:15:58;4.90;;;3.40;;
10535;SDS011;5316;49.538;8.352;2024-02-26T06:18:25;3.03;;;2.73;;
10535;SDS011;5316;49.538;8.352;2024-02-26T06:20:51;2.87;;;2.10;;
10535;SDS011;5316;49.538;8.352;2024-02-26T06:23:19;4.50;;;2.23;;
10535;SDS011;5316;49.538;8.352;2024-02-26T06:25:46;4.33;;;2.73;;
10535;SDS011;5316;49.538;8.352;2024-02-26T06:28:13;5.03;;;3.20;;
10535;SDS011;5316;49.538;8.352;2024-02-26T06:30:40;5.70;;;4.50;;
10535;SDS011;5316;49.538;8.352;2024-02-26T06:33:07;6.30;;;4.63;;
10535;SDS011;5316;49.538;8.352;2024-02-26T06:35:34;4.03;;;3.20;;
10535;SDS011;5316;49.538;8.352;2024-02-26T06:38:01;5.63;;;3.17;;
10535;SDS011;5316;49.538;8.352;2024-02-26T06:40:29;3.37;;;2.33;;
10535;SDS011;5316;49.538;8.352;2024-02-26T06:42:55;2.87;;;2.53;;
10535;SDS011;5316;49.538;8.352;2024-02-26T06:45:22;3.90;;;2.20;;
10535;SDS011;5316;49.538;8.352;2024-02-26T06:47:49;4.57;;;2.10;;
10535;SDS011;5316;49.538;8.352;2024-02-26T06:50:16;2.20;;;2.00;;
10535;SDS011;5316;49.538;8.352;2024-02-26T06:52:43;3.10;;;2.10;;
10535;SDS011;5316;49.538;8.352;2024-02-26T06:55:10;1.87;;;1.77;;
10535;SDS011;5316;49.538;8.352;2024-02-26T06:57:39;8.27;;;4.47;;
10535;SDS011;5316;49.538;8.352;2024-02-26T07:00:07;2.73;;;1.90;;
10535;SDS011;5316;49.538;8.352;2024-02-26T07:02:39;2.20;;;1.97;;
10535;SDS011;5316;49.538;8.352;2024-02-26T07:05:06;2.03;;;1.80;;
10535;SDS011;5316;49.538;8.352;2024-02-26T07:07:34;2.77;;;1.77;;
10535;SDS011;5316;49.538;8.352;2024-02-26T07:10:01;2.47;;;1.50;;
10535;SDS011;5316;49.538;8.352;2024-02-26T07:12:30;2.20;;;1.60;;
10535;SDS011;5316;49.538;8.352;2024-02-26T07:14:58;1.53;;;1.37;;
10535;SDS011;5316;49.538;8.352;2024-02-26T07:17:25;2.40;;;2.20;;
10535;SDS011;5316;49.538;8.352;2024-02-26T07:19:52;3.93;;;1.90;;
10535;SDS011;5316;49.538;8.352;2024-02-26T07:22:19;3.70;;;1.70;;
10535;SDS011;5316;49.538;8.352;2024-02-26T07:24:45;1.93;;;1.30;;
10535;SDS011;5316;49.538;8.352;2024-02-26T07:27:12;4.53;;;1.70;;
10535;SDS011;5316;49.538;8.352;2024-02-26T07:29:42;3.17;;;1.80;;
10535;SDS011;5316;49.538;8.352;2024-02-26T07:32:10;2.10;;;1.87;;
10535;SDS011;5316;49.538;8.352;2024-02-26T07:34:37;2.70;;;2.50;;
10535;SDS011;5316;49.538;8.352;2024-02-26T07:37:06;2.70;;;2.07;;
10535;SDS011;5316;49.538;8.352;2024-02-26T07:39:33;2.37;;;2.07;;
10535;SDS011;5316;49.538;8.352;2024-02-26T07:42:00;1.80;;;1.70;;
10535;SDS011;5316;49.538;8.352;2024-02-26T07:44:26;2.80;;;2.00;;
10535;SDS011;5316;49.538;8.352;2024-02-26T07:46:53;2.47;;;1.60;;
10535;SDS011;5316;49.538;8.352;2024-02-26T07:49:21;1.63;;;1.53;;
10535;SDS011;5316;49.538;8.352;2024-02-26T07:51:48;2.03;;;1.40;;
10535;SDS011;5316;49.538;8.352;2024-02-26T07:54:15;1.50;;;1.40;;
10535;SDS011;5316;49.538;8.352;2024-02-26T07:56:42;1.60;;;1.50;;
10535;SDS011;5316;49.538;8.352;2024-02-26T07:59:09;1.57;;;1.40;;
10535;SDS011;5316;49.538;8.352;2024-02-26T08:01:35;1.67;;;1.23;;
10535;SDS011;5316;49.538;8.352;2024-02-26T08:04:04;2.23;;;1.73;;
10535;SDS011;5316;49.538;8.352;2024-02-26T08:06:32;4.33;;;2.60;;
10535;SDS011;5316;49.538;8.352;2024-02-26T08:08:59;3.50;;;2.20;;
10535;SDS011;5316;49.538;8.352;2024-02-26T08:11:27;2.80;;;2.60;;
10535;SDS011;5316;49.538;8.352;2024-02-26T08:13:54;3.70;;;3.40;;
10535;SDS011;5316;49.538;8.352;2024-02-26T08:16:20;4.57;;;4.27;;
10535;SDS011;5316;49.538;8.352;2024-02-26T08:18:48;4.97;;;4.63;;
10535;SDS011;5316;49.538;8.352;2024-02-26T08:21:15;4.50;;;4.07;;
10535;SDS011;5316;49.538;8.352;2024-02-26T08:23:43;3.40;;;3.00;;
10535;SDS011;5316;49.538;8.352;2024-02-26T08:26:10;3.07;;;2.77;;
10535;SDS011;5316;49.538;8.352;2024-02-26T08:28:37;2.43;;;2.20;;
10535;SDS011;5316;49.538;8.352;2024-02-26T08:31:04;1.83;;;1.53;;
10535;SDS011;5316;49.538;8.352;2024-02-26T08:33:32;1.70;;;1.60;;
10535;SDS011;5316;49.538;8.352;2024-02-26T08:35:59;1.63;;;1.53;;
10535;SDS011;5316;49.538;8.352;2024-02-26T08:38:25;1.33;;;1.23;;
10535;SDS011;5316;49.538;8.352;2024-02-26T08:40:54;1.63;;;1.50;;
10535;SDS011;5316;49.538;8.352;2024-02-26T08:43:20;1.73;;;1.37;;
10535;SDS011;5316;49.538;8.352;2024-02-26T08:45:47;4.43;;;1.67;;
10535;SDS011;5316;49.538;8.352;2024-02-26T08:48:14;1.57;;;1.47;;
10535;SDS011;5316;49.538;8.352;2024-02-26T08:50:48;1.50;;;1.40;;
10535;SDS011;5316;49.538;8.352;2024-02-26T08:53:15;2.80;;;2.60;;
10535;SDS011;5316;49.538;8.352;2024-02-26T08:55:46;4.07;;;1.97;;
10535;SDS011;5316;49.538;8.352;2024-02-26T08:58:16;1.97;;;1.87;;
10535;SDS011;5316;49.538;8.352;2024-02-26T09:00:44;1.50;;;1.40;;
10535;SDS011;5316;49.538;8.352;2024-02-26T09:03:10;2.23;;;1.77;;
10535;SDS011;5316;49.538;8.352;2024-02-26T09:05:37;3.97;;;1.50;;
10535;SDS011;5316;49.538;8.352;2024-02-26T09:08:04;4.40;;;1.63;;
10535;SDS011;5316;49.538;8.352;2024-02-26T09:10:32;2.60;;;2.20;;
10535;SDS011;5316;49.538;8.352;2024-02-26T09:12:59;2.37;;;1.83;;
10535;SDS011;5316;49.538;8.352;2024-02-26T09:15:27;3.27;;;2.10;;
10535;SDS011;5316;49.538;8.352;2024-02-26T09:17:53;2.23;;;2.03;;
10535;SDS011;5316;49.538;8.352;2024-02-26T09:20:20;3.03;;;1.90;;
10535;SDS011;5316;49.538;8.352;2024-02-26T09:22:48;2.20;;;1.90;;
10535;SDS011;5316;49.538;8.352;2024-02-26T09:25:15;1.63;;;1.53;;
10535;SDS011;5316;49.538;8.352;2024-02-26T09:27:42;3.77;;;1.80;;
10535;SDS011;5316;49.538;8.352;2024-02-26T09:30:10;3.40;;;1.80;;
10535;SDS011;5316;49.538;8.352;2024-02-26T09:32:39;2.20;;;2.10;;
10535;SDS011;5316;49.538;8.352;2024-02-26T09:35:06;3.00;;;2.80;;
10535;SDS011;5316;49.538;8.352;2024-02-26T09:37:33;7.30;;;4.37;;
10535;SDS011;5316;49.538;8.352;2024-02-26T09:40:02;3.27;;;3.07;;
10535;SDS011;5316;49.538;8.352;2024-02-26T09:42:29;3.40;;;3.10;;
10535;SDS011;5316;49.538;8.352;2024-02-26T09:44:57;3.37;;;2.83;;
10535;SDS011;5316;49.538;8.352;2024-02-26T09:47:28;2.93;;;2.10;;
10535;SDS011;5316;49.538;8.352;2024-02-26T09:49:59;2.93;;;2.60;;
10535;SDS011;5316;49.538;8.352;2024-02-26T09:52:29;3.43;;;2.60;;
10535;SDS011;5316;49.538;8.352;2024-02-26T09:54:59;5.40;;;3.20;;
10535;SDS011;5316;49.538;8.352;2024-02-26T09:57:29;4.33;;;3.30;;
10535;SDS011;5316;49.538;8.352;2024-02-26T09:59:57;2.97;;;2.77;;
10535;SDS011;5316;49.538;8.352;2024-02-26T10:02:28;4.60;;;3.13;;
10535;SDS011;5316;49.538;8.352;2024-02-26T10:04:56;4.03;;;3.00;;
10535;SDS011;5316;49.538;8.352;2024-02-26T10:07:26;3.43;;;2.57;;
10535;SDS011;5316;49.538;8.352;2024-02-26T10:09:55;2.77;;;2.57;;
10535;SDS011;5316;49.538;8.352;2024-02-26T10:12:22;3.43;;;3.13;;
10535;SDS011;5316;49.538;8.352;2024-02-26T10:14:50;2.80;;;2.53;;
10535;SDS011;5316;49.538;8.352;2024-02-26T10:17:17;7.73;;;6.17;;
10535;SDS011;5316;49.538;8.352;2024-02-26T10:19:46;3.50;;;3.20;;
10535;SDS011;5316;49.538;8.352;2024-02-26T10:22:14;5.20;;;3.67;;
10535;SDS011;5316;49.538;8.352;2024-02-26T10:24:41;3.13;;;2.70;;
10535;SDS011;5316;49.538;8.352;2024-02-26T10:27:07;3.97;;;2.93;;
10535;SDS011;5316;49.538;8.352;2024-02-26T10:29:35;5.03;;;2.87;;
10535;SDS011;5316;49.538;8.352;2024-02-26T10:32:01;3.20;;;2.90;;
10535;SDS011;5316;49.538;8.352;2024-02-26T10:34:28;3.10;;;2.73;;
10535;SDS011;5316;49.538;8.352;2024-02-26T10:36:55;2.97;;;2.80;;
10535;SDS011;5316;49.538;8.352;2024-02-26T10:39:23;4.57;;;3.00;;
10535;SDS011;5316;49.538;8.352;2024-02-26T10:41:50;3.40;;;3.17;;
10535;SDS011;5316;49.538;8.352;2024-02-26T10:44:18;3.97;;;3.03;;
10535;SDS011;5316;49.538;8.352;2024-02-26T10:46:46;4.67;;;3.13;;
10535;SDS011;5316;49.538;8.352;2024-02-26T10:49:14;3.70;;;3.33;;
10535;SDS011;5316;49.538;8.352;2024-02-26T10:51:43;5.63;;;4.30;;
10535;SDS011;5316;49.538;8.352;2024-02-26T10:54:12;3.13;;;2.83;;
10535;SDS011;5316;49.538;8.352;2024-02-26T10:56:43;3.10;;;2.10;;
10535;SDS011;5316;49.538;8.352;2024-02-26T10:59:12;2.20;;;2.00;;
10535;SDS011;5316;49.538;8.352;2024-02-26T11:01:40;3.20;;;2.53;;
10535;SDS011;5316;49.538;8.352;2024-02-26T11:04:11;4.70;;;2.30;;
10535;SDS011;5316;49.538;8.352;2024-02-26T11:06:39;17.97;;;8.00;;
10535;SDS011;5316;49.538;8.352;2024-02-26T11:09:06;14.37;;;7.53;;
10535;SDS011;5316;49.538;8.352;2024-02-26T11:11:37;38.60;;;17.77;;
10535;SDS011;5316;49.538;8.352;2024-02-26T11:14:06;25.20;;;13.53;;
10535;SDS011;5316;49.538;8.352;2024-02-26T11:16:35;10.73;;;5.67;;
10535;SDS011;5316;49.538;8.352;2024-02-26T11:19:03;4.43;;;2.90;;
10535;SDS011;5316;49.538;8.352;2024-02-26T11:21:31;6.27;;;4.60;;
10535;SDS011;5316;49.538;8.352;2024-02-26T11:24:04;9.10;;;5.57;;
10535;SDS011;5316;49.538;8.352;2024-02-26T11:26:32;6.43;;;3.90;;
10535;SDS011;5316;49.538;8.352;2024-02-26T11:29:00;5.37;;;3.57;;
10535;SDS011;5316;49.538;8.352;2024-02-26T11:31:29;4.10;;;2.53;;
10535;SDS011;5316;49.538;8.352;2024-02-26T11:33:57;2.80;;;1.87;;
10535;SDS011;5316;49.538;8.352;2024-02-26T11:36:24;2.40;;;2.00;;
10535;SDS011;5316;49.538;8.352;2024-02-26T11:38:50;3.90;;;3.40;;
10535;SDS011;5316;49.538;8.352;2024-02-26T11:41:17;5.33;;;4.63;;
10535;SDS011;5316;49.538;8.352;2024-02-26T11:43:50;5.23;;;4.20;;
10535;SDS011;5316;49.538;8.352;2024-02-26T11:46:29;5.97;;;4.20;;
10535;SDS011;5316;49.538;8.352;2024-02-26T11:48:58;3.33;;;1.97;;
10535;SDS011;5316;49.538;8.352;2024-02-26T11:51:26;2.43;;;2.00;;
10535;SDS011;5316;49.538;8.352;2024-02-26T11:53:53;2.30;;;2.10;;
10535;SDS011;5316;49.538;8.352;2024-02-26T11:56:22;7.27;;;5.53;;
10535;SDS011;5316;49.538;8.352;2024-02-26T11:58:57;8.67;;;4.47;;
10535;SDS011;5316;49.538;8.352;2024-02-26T12:01:40;4.47;;;3.43;;
10535;SDS011;5316;49.538;8.352;2024-02-26T12:04:10;5.30;;;2.30;;
10535;SDS011;5316;49.538;8.352;2024-02-26T12:06:40;3.40;;;3.10;;
10535;SDS011;5316;49.538;8.352;2024-02-26T12:09:08;3.80;;;2.57;;
10535;SDS011;5316;49.538;8.352;2024-02-26T12:11:37;2.17;;;1.70;;
10535;SDS011;5316;49.538;8.352;2024-02-26T12:14:05;1.80;;;1.63;;
10535;SDS011;5316;49.538;8.352;2024-02-26T12:16:36;1.97;;;1.63;;
10535;SDS011;5316;49.538;8.352;2024-02-26T12:19:06;3.40;;;2.00;;
10535;SDS011;5316;49.538;8.352;2024-02-26T12:21:34;2.50;;;2.30;;
10535;SDS011;5316;49.538;8.352;2024-02-26T12:24:11;3.37;;;2.20;;
10535;SDS011;5316;49.538;8.352;2024-02-26T12:26:39;3.97;;;1.57;;
10535;SDS011;5316;49.538;8.352;2024-02-26T12:29:06;3.73;;;3.00;;
10535;SDS011;5316;49.538;8.352;2024-02-26T12:31:33;3.07;;;2.07;;
10535;SDS011;5316;49.538;8.352;2024-02-26T12:34:02;2.90;;;2.60;;
10535;SDS011;5316;49.538;8.352;2024-02-26T12:36:30;3.83;;;2.50;;
10535;SDS011;5316;49.538;8.352;2024-02-26T12:38:59;3.27;;;2.60;;
10535;SDS011;5316;49.538;8.352;2024-02-26T12:41:27;1.83;;;1.70;;
10535;SDS011;5316;49.538;8.352;2024-02-26T12:43:55;2.20;;;1.87;;
10535;SDS011;5316;49.538;8.352;2024-02-26T12:46:23;2.17;;;1.60;;
10535;SDS011;5316;49.538;8.352;2024-02-26T12:48:50;1.67;;;1.57;;
10535;SDS011;5316;49.538;8.352;2024-02-26T12:51:17;1.67;;;1.57;;
10535;SDS011;5316;49.538;8.352;2024-02-26T12:53:45;1.60;;;1.50;;
10535;SDS011;5316;49.538;8.352;2024-02-26T12:56:15;2.00;;;1.47;;
10535;SDS011;5316;49.538;8.352;2024-02-26T12:58:42;2.13;;;1.70;;
10535;SDS011;5316;49.538;8.352;2024-02-26T13:01:13;1.70;;;1.60;;
10535;SDS011;5316;49.538;8.352;2024-02-26T13:03:41;2.37;;;1.57;;
10535;SDS011;5316;49.538;8.352;2024-02-26T13:06:09;3.67;;;3.33;;
10535;SDS011;5316;49.538;8.352;2024-02-26T13:08:36;1.40;;;1.30;;
10535;SDS011;5316;49.538;8.352;2024-02-26T13:11:04;2.70;;;1.20;;
10535;SDS011;5316;49.538;8.352;2024-02-26T13:13:31;1.87;;;1.73;;
10535;SDS011;5316;49.538;8.352;2024-02-26T13:16:01;1.60;;;1.50;;
10535;SDS011;5316;49.538;8.352;2024-02-26T13:18:29;2.20;;;1.40;;
10535;SDS011;5316;49.538;8.352;2024-02-26T13:21:06;1.50;;;1.40;;
10535;SDS011;5316;49.538;8.352;2024-02-26T13:23:34;2.33;;;1.30;;
10535;SDS011;5316;49.538;8.352;2024-02-26T13:26:01;2.63;;;1.50;;
10535;SDS011;5316;49.538;8.352;2024-02-26T13:28:29;1.57;;;1.47;;
10535;SDS011;5316;49.538;8.352;2024-02-26T13:30:56;1.43;;;1.27;;
10535;SDS011;5316;49.538;8.352;2024-02-26T13:33:25;2.17;;;1.27;;
10535;SDS011;5316;49.538;8.352;2024-02-26T13:35:53;3.83;;;1.20;;
10535;SDS011;5316;49.538;8.352;2024-02-26T13:38:20;1.20;;;1.10;;
10535;SDS011;5316;49.538;8.352;2024-02-26T13:40:47;1.67;;;1.13;;
10535;SDS011;5316;49.538;8.352;2024-02-26T13:43:14;1.47;;;1.00;;
10535;SDS011;5316;49.538;8.352;2024-02-26T13:45:42;1.30;;;1.20;;
10535;SDS011;5316;49.538;8.352;2024-02-26T13:48:10;1.90;;;1.10;;
10535;SDS011;5316;49.538;8.352;2024-02-26T13:50:37;1.40;;;1.30;;
10535;SDS011;5316;49.538;8.352;2024-02-26T13:53:04;1.20;;;1.10;;
10535;SDS011;5316;49.538;8.352;2024-02-26T13:55:31;3.07;;;1.37;;
10535;SDS011;5316;49.538;8.352;2024-02-26T13:57:58;1.13;;;1.13;;
10535;SDS011;5316;49.538;8.352;2024-02-26T14:00:26;0.90;;;0.90;;
10535;SDS011;5316;49.538;8.352;2024-02-26T14:02:54;1.00;;;1.00;;
10535;SDS011;5316;49.538;8.352;2024-02-26T14:05:21;3.00;;;2.63;;
10535;SDS011;5316;49.538;8.352;2024-02-26T14:07:48;1.57;;;1.03;;
10535;SDS011;5316;49.538;8.352;2024-02-26T14:10:15;1.10;;;1.10;;
10535;SDS011;5316;49.538;8.352;2024-02-26T14:12:41;1.40;;;1.30;;
10535;SDS011;5316;49.538;8.352;2024-02-26T14:15:09;1.70;;;1.10;;
10535;SDS011;5316;49.538;8.352;2024-02-26T14:17:37;1.33;;;1.23;;
10535;SDS011;5316;49.538;8.352;2024-02-26T14:20:05;1.63;;;1.53;;
10535;SDS011;5316;49.538;8.352;2024-02-26T14:22:34;1.67;;;1.57;;
10535;SDS011;5316;49.538;8.352;2024-02-26T14:25:01;3.20;;;1.70;;
10535;SDS011;5316;49.538;8.352;2024-02-26T14:27:28;1.80;;;1.70;;
10535;SDS011;5316;49.538;8.352;2024-02-26T14:29:54;2.80;;;1.40;;
10535;SDS011;5316;49.538;8.352;2024-02-26T14:32:21;1.70;;;1.60;;
10535;SDS011;5316;49.538;8.352;2024-02-26T14:34:48;2.60;;;1.40;;
10535;SDS011;5316;49.538;8.352;2024-02-26T14:37:16;1.80;;;1.70;;
10535;SDS011;5316;49.538;8.352;2024-02-26T14:39:42;1.90;;;1.60;;
10535;SDS011;5316;49.538;8.352;2024-02-26T14:42:09;1.37;;;1.27;;
10535;SDS011;5316;49.538;8.352;2024-02-26T14:44:36;2.00;;;1.80;;
10535;SDS011;5316;49.538;8.352;2024-02-26T14:47:03;1.93;;;1.40;;
10535;SDS011;5316;49.538;8.352;2024-02-26T14:49:30;1.53;;;1.43;;
10535;SDS011;5316;49.538;8.352;2024-02-26T14:51:57;1.53;;;1.43;;
10535;SDS011;5316;49.538;8.352;2024-02-26T14:54:25;1.87;;;1.60;;
10535;SDS011;5316;49.538;8.352;2024-02-26T14:56:52;2.30;;;1.50;;
10535;SDS011;5316;49.538;8.352;2024-02-26T14:59:19;1.70;;;1.37;;
10535;SDS011;5316;49.538;8.352;2024-02-26T15:01:45;1.47;;;1.37;;